createdAt,value
2017-08-30T00:02:03.345Z,20.1
2017-08-30T00:07:03.374Z,20.1
2017-08-30T00:12:03.617Z,19.9
2017-08-30T00:17:03.765Z,19.8
2017-08-30T00:22:03.042Z,19.8
2017-08-30T00:27:03.320Z,19.7
2017-08-30T00:32:03.232Z,19.7
2017-08-30T00:37:03.303Z,19.7
2017-08-30T00:42:03.557Z,19.7
2017-08-30T00:47:02.890Z,19.6
2017-08-30T00:52:02.927Z,19.5
2017-08-30T00:57:03.166Z,19.5
2017-08-30T01:02:03.487Z,19.5
2017-08-30T01:07:02.927Z,19.4
2017-08-30T01:12:03.264Z,19.3
2017-08-30T01:17:03.548Z,19.4
2017-08-30T01:22:02.784Z,19.2
2017-08-30T01:27:03.026Z,19.2
2017-08-30T01:32:03.143Z,19.1
2017-08-30T01:37:02.936Z,19.1
2017-08-30T01:42:03.021Z,19.1
2017-08-30T01:47:03.280Z,18.9
2017-08-30T01:52:03.503Z,18.8
2017-08-30T01:57:02.804Z,18.9
2017-08-30T02:02:03.114Z,18.9
2017-08-30T02:07:03.312Z,18.7
2017-08-30T02:12:03.548Z,18.7
2017-08-30T02:17:03.072Z,18.7
2017-08-30T02:22:03.270Z,18.7
2017-08-30T02:27:03.473Z,18.7
2017-08-30T02:32:02.792Z,18.6
2017-08-30T02:37:03.038Z,18.6
2017-08-30T02:42:03.224Z,18.6
2017-08-30T02:47:03.574Z,18.5
2017-08-30T02:52:02.961Z,18.4
2017-08-30T02:57:03.242Z,18.3
2017-08-30T03:02:03.645Z,17.9
2017-08-30T03:07:02.994Z,17.8
2017-08-30T03:12:03.459Z,17.8
2017-08-30T03:17:02.989Z,17.8
2017-08-30T03:22:03.254Z,17.8
2017-08-30T03:27:03.561Z,17.7
2017-08-30T03:32:02.969Z,17.8
2017-08-30T03:37:03.289Z,17.8
2017-08-30T03:42:03.553Z,17.8
2017-08-30T03:47:02.983Z,17.8
2017-08-30T03:52:03.246Z,17.8
2017-08-30T03:57:03.556Z,17.9
2017-08-30T04:02:10.055Z,17.8
2017-08-30T04:07:03.379Z,17.9
2017-08-30T04:12:03.095Z,17.8
2017-08-30T04:17:14.014Z,17.7
2017-08-30T04:22:03.051Z,17.7
2017-08-30T04:27:03.118Z,17.7
2017-08-30T04:32:13.341Z,17.7
2017-08-30T04:37:03.556Z,17.8
2017-08-30T04:42:03.365Z,17.9
2017-08-30T04:47:17.292Z,17.9
2017-08-30T04:52:03.305Z,17.8
2017-08-30T04:57:02.815Z,18.0
2017-08-30T05:02:13.408Z,18.0
2017-08-30T05:07:02.975Z,18.1
2017-08-30T05:12:03.400Z,18.2
2017-08-30T05:17:13.383Z,18.2
2017-08-30T05:22:03.293Z,18.2
2017-08-30T05:27:02.799Z,18.4
2017-08-30T05:32:13.490Z,18.6
2017-08-30T05:37:02.847Z,18.5
2017-08-30T05:42:03.327Z,18.7
2017-08-30T05:47:17.350Z,19.0
2017-08-30T05:52:02.691Z,19.3
2017-08-30T05:57:03.132Z,19.3
2017-08-30T06:02:13.663Z,19.6
2017-08-30T06:07:02.798Z,19.9
2017-08-30T06:12:03.427Z,19.9
2017-08-30T06:17:17.584Z,20.3
2017-08-30T06:22:03.584Z,20.2
2017-08-30T06:27:03.003Z,20.7
2017-08-30T06:32:17.652Z,21.0
2017-08-30T06:37:02.950Z,21.0
2017-08-30T06:42:03.332Z,21.4
2017-08-30T06:47:13.092Z,22.1
2017-08-30T06:52:03.355Z,22.5
2017-08-30T06:57:02.891Z,22.5
2017-08-30T07:02:17.706Z,23.3
2017-08-30T07:07:02.803Z,23.2
2017-08-30T07:12:03.437Z,24.0
2017-08-30T07:17:13.521Z,24.4
2017-08-30T07:22:02.738Z,24.3
2017-08-30T07:27:03.257Z,24.3
2017-08-30T07:32:12.950Z,24.5
2017-08-30T07:37:02.950Z,24.5
2017-08-30T07:42:03.409Z,24.8
2017-08-30T07:47:13.314Z,25.2
2017-08-30T07:52:02.706Z,25.4
2017-08-30T07:57:03.264Z,25.8
2017-08-30T08:02:16.913Z,26.3
2017-08-30T08:07:03.285Z,26.8
2017-08-30T08:12:02.856Z,27.2
2017-08-30T08:17:13.925Z,27.5
2017-08-30T08:22:02.933Z,27.5
2017-08-30T08:27:03.456Z,27.6
2017-08-30T08:32:12.969Z,27.7
2017-08-30T08:37:03.517Z,27.9
2017-08-30T08:42:03.012Z,28.7
2017-08-30T08:47:17.341Z,29.1
2017-08-30T08:52:03.383Z,29.1
2017-08-30T08:57:03.044Z,29.7
2017-08-30T09:02:13.846Z,31.1
2017-08-30T09:07:03.007Z,31.7
2017-08-30T09:12:03.583Z,31.6
2017-08-30T09:17:22.890Z,32.0
2017-08-30T09:22:02.746Z,32.2
2017-08-30T09:27:03.317Z,32.1
2017-08-30T09:32:11.414Z,32.2
2017-08-30T09:37:03.583Z,32.2
2017-08-30T09:42:02.854Z,32.5
2017-08-30T09:47:17.186Z,32.5
2017-08-30T09:52:02.760Z,32.6
2017-08-30T09:57:03.308Z,33.0
2017-08-30T10:02:22.463Z,33.0
2017-08-30T10:07:02.787Z,32.7
2017-08-30T10:12:03.054Z,32.4
2017-08-30T10:17:13.943Z,32.4
2017-08-30T10:22:02.867Z,32.4
2017-08-30T10:27:03.350Z,32.7
2017-08-30T10:32:17.292Z,32.9
2017-08-30T10:37:03.396Z,33.0
2017-08-30T10:42:02.838Z,33.2
2017-08-30T10:47:13.589Z,33.2
2017-08-30T10:52:02.646Z,33.3
2017-08-30T10:57:03.197Z,33.2
2017-08-30T11:02:16.320Z,33.7
2017-08-30T11:07:03.344Z,33.6
2017-08-30T11:12:03.175Z,34.2
2017-08-30T11:17:13.939Z,34.6
2017-08-30T11:22:03.284Z,35.2
2017-08-30T11:27:02.769Z,35.1
2017-08-30T11:32:13.464Z,35.2
2017-08-30T11:37:03.126Z,35.0
2017-08-30T11:42:03.528Z,34.7
2017-08-30T11:47:16.716Z,34.8
2017-08-30T11:52:02.667Z,34.7
2017-08-30T11:57:03.223Z,34.6
2017-08-30T12:02:16.084Z,34.5
2017-08-30T12:07:03.429Z,34.5
2017-08-30T12:12:03.339Z,34.4
2017-08-30T12:17:13.401Z,35.0
2017-08-30T12:22:03.431Z,34.9
2017-08-30T12:27:02.903Z,34.9
2017-08-30T12:32:13.689Z,35.1
2017-08-30T12:37:02.853Z,35.1
2017-08-30T12:42:03.395Z,35.4
2017-08-30T12:47:13.307Z,35.3
2017-08-30T12:52:03.268Z,35.4
2017-08-30T12:57:02.832Z,35.4
2017-08-30T13:02:13.542Z,36.1
2017-08-30T13:07:02.975Z,36.3
2017-08-30T13:12:03.505Z,36.3
2017-08-30T13:17:13.539Z,35.9
2017-08-30T13:22:03.066Z,35.5
2017-08-30T13:27:03.452Z,35.5
2017-08-30T13:32:17.154Z,35.9
2017-08-30T13:37:03.577Z,35.9
2017-08-30T13:42:03.047Z,36.5
2017-08-30T13:47:13.970Z,36.8
2017-08-30T13:52:03.277Z,37.0
2017-08-30T13:57:02.705Z,37.0
2017-08-30T14:02:17.385Z,37.4
2017-08-30T14:07:02.872Z,37.5
2017-08-30T14:12:03.427Z,37.4
2017-08-30T14:17:22.769Z,37.6
2017-08-30T14:22:03.436Z,37.5
2017-08-30T14:27:03.579Z,37.8
2017-08-30T14:32:13.244Z,37.8
2017-08-30T14:37:03.421Z,38.5
2017-08-30T14:42:02.895Z,39.9
2017-08-30T14:47:18.128Z,39.9
2017-08-30T14:52:03.059Z,38.4
2017-08-30T14:57:03.423Z,36.1
2017-08-30T15:02:13.638Z,35.0
2017-08-30T15:07:02.994Z,34.5
2017-08-30T15:12:03.544Z,34.0
2017-08-30T15:17:12.679Z,34.0
2017-08-30T15:22:03.262Z,33.5
2017-08-30T15:27:03.587Z,33.1
2017-08-30T15:32:17.578Z,32.6
2017-08-30T15:37:03.453Z,32.5
2017-08-30T15:42:02.937Z,31.9
2017-08-30T15:47:13.548Z,31.9
2017-08-30T15:52:02.882Z,31.4
2017-08-30T15:57:02.819Z,31.2
2017-08-30T16:02:22.639Z,31.1
2017-08-30T16:07:02.850Z,31.2
2017-08-30T16:12:03.446Z,31.2
2017-08-30T16:17:13.691Z,31.1
2017-08-30T16:22:02.888Z,31.3
2017-08-30T16:27:03.397Z,31.3
2017-08-30T16:32:17.191Z,31.2
2017-08-30T16:37:03.344Z,31.0
2017-08-30T16:42:02.840Z,30.7
2017-08-30T16:47:18.055Z,30.6
2017-08-30T16:52:03.460Z,31.4
2017-08-30T16:57:02.937Z,31.4
2017-08-30T17:02:23.215Z,31.1
2017-08-30T17:07:03.076Z,31.1
2017-08-30T17:12:03.647Z,30.5
2017-08-30T17:17:13.583Z,30.1
2017-08-30T17:22:02.878Z,29.5
2017-08-30T17:27:03.331Z,29.5
2017-08-30T17:32:17.275Z,29.0
2017-08-30T17:37:03.365Z,29.0
2017-08-30T17:42:02.750Z,29.0
2017-08-30T17:47:13.806Z,28.9
2017-08-30T17:52:02.769Z,29.0
2017-08-30T17:57:03.429Z,28.9
2017-08-30T18:02:13.383Z,28.6
2017-08-30T18:07:03.345Z,28.7
2017-08-30T18:12:02.965Z,28.5
2017-08-30T18:17:13.631Z,28.4
2017-08-30T18:22:02.830Z,28.3
2017-08-30T18:27:03.226Z,28.3
2017-08-30T18:32:14.356Z,28.2
2017-08-30T18:37:02.848Z,28.2
2017-08-30T18:42:03.136Z,28.1
2017-08-30T18:47:03.818Z,28.0
2017-08-30T18:52:02.977Z,27.7
2017-08-30T18:57:03.307Z,27.7
2017-08-30T19:02:02.754Z,27.5
2017-08-30T19:07:03.110Z,27.5
2017-08-30T19:12:03.644Z,27.3
2017-08-30T19:17:03.312Z,27.2
2017-08-30T19:22:03.321Z,27.2
2017-08-30T19:27:02.785Z,27.1
2017-08-30T19:32:03.406Z,26.9
2017-08-30T19:37:03.387Z,26.9
2017-08-30T19:42:02.869Z,26.9
2017-08-30T19:47:03.422Z,26.9
2017-08-30T19:52:03.526Z,26.9
2017-08-30T19:57:03.068Z,26.9
2017-08-30T20:02:03.343Z,26.7
2017-08-30T20:07:02.877Z,26.7
2017-08-30T20:12:03.261Z,26.3
2017-08-30T20:17:03.657Z,26.2
2017-08-30T20:22:03.085Z,26.1
2017-08-30T20:27:03.361Z,25.9
2017-08-30T20:32:02.844Z,25.6
2017-08-30T20:37:03.069Z,25.4
2017-08-30T20:42:03.260Z,25.2
2017-08-30T20:47:02.731Z,24.1
2017-08-30T20:52:03.048Z,22.2
2017-08-30T20:57:03.358Z,22.1
2017-08-30T21:02:03.275Z,21.7
2017-08-30T21:07:03.181Z,21.7
2017-08-30T21:12:02.803Z,22.0
2017-08-30T21:17:03.120Z,21.9
2017-08-30T21:22:03.487Z,22.0
2017-08-30T21:27:02.783Z,21.9
2017-08-30T21:32:03.153Z,21.9
2017-08-30T21:37:03.458Z,21.9
2017-08-30T21:42:02.820Z,21.8
2017-08-30T21:47:03.094Z,21.8
2017-08-30T21:52:03.459Z,21.8
2017-08-30T21:57:02.895Z,21.7
2017-08-30T22:02:03.244Z,21.4
2017-08-30T22:07:03.606Z,21.4
2017-08-30T22:12:02.904Z,21.4
2017-08-30T22:22:03.816Z,21.4
2017-08-30T22:27:03.093Z,21.3
2017-08-30T22:32:03.628Z,21.4
2017-08-30T22:37:02.927Z,21.3
2017-08-30T22:42:02.716Z,21.2
2017-08-30T22:47:03.301Z,21.2
2017-08-30T22:52:03.000Z,21.1
2017-08-30T22:57:03.499Z,21.2
2017-08-30T23:02:03.315Z,21.1
2017-08-30T23:07:02.918Z,21.2
2017-08-30T23:12:02.912Z,21.2
2017-08-30T23:17:03.122Z,21.2
2017-08-30T23:22:03.379Z,21.2
2017-08-30T23:27:03.253Z,21.3
2017-08-30T23:32:03.150Z,21.3
2017-08-30T23:37:03.377Z,21.3
2017-08-30T23:42:03.231Z,21.3
2017-08-30T23:47:03.092Z,21.3
2017-08-30T23:52:03.010Z,21.3
2017-08-30T23:57:02.882Z,21.2
